Time;durP1;ratioP1;P1;durP2;ratioP2;P2;SDS_P1;SDS_P2;PMS_P1;PMS_P2;Temp;Humidity;BMP_temperature;BMP_pressure;BME280_temperature;BME280_humidity;BME280_pressure;Samples;Min_cycle;Max_cycle;Signal;HPM_P1;HPM_P2
2022/09/23 00:00:36;;;;;;;4.05;2.30;;;10.20;99.90;;;;;;4996001;28;20041;-70
2022/09/23 00:03:03;;;;;;;4.25;2.20;;;10.20;99.90;;;;;;4995741;28;20033;-69
2022/09/23 00:05:29;;;;;;;4.47;1.80;;;10.10;99.90;;;;;;4994968;28;20026;-70
2022/09/23 00:07:56;;;;;;;2.83;2.05;;;10.10;99.90;;;;;;4995372;28;20036;-70
2022/09/23 00:10:23;;;;;;;3.22;2.25;;;10.10;99.90;;;;;;4994912;28;20394;-70
2022/09/23 00:12:49;;;;;;;2.60;1.77;;;10.10;99.90;;;;;;4995824;28;20114;-69
2022/09/23 00:15:15;;;;;;;2.80;1.70;;;10.10;99.90;;;;;;4995102;28;20050;-70
2022/09/23 00:17:41;;;;;;;3.75;2.22;;;10.10;99.90;;;;;;4995259;28;20467;-70
2022/09/23 00:20:08;;;;;;;3.08;2.05;;;10.10;99.90;;;;;;4995475;28;20037;-69
2022/09/23 00:22:35;;;;;;;2.50;2.00;;;10.00;99.90;;;;;;4995290;28;20054;-70
2022/09/23 00:25:06;;;;;;;2.58;1.80;;;10.00;99.90;;;;;;4995247;28;20113;-69
2022/09/23 00:27:34;;;;;;;1.90;1.67;;;10.10;99.90;;;;;;4994948;28;20318;-70
2022/09/23 00:30:01;;;;;;;3.08;1.67;;;10.10;99.90;;;;;;4994872;28;20531;-70
2022/09/23 00:32:26;;;;;;;2.30;1.75;;;10.00;99.90;;;;;;4995112;28;20031;-70
2022/09/23 00:34:52;;;;;;;2.67;1.85;;;10.00;99.90;;;;;;4977697;28;20407;-70
2022/09/23 00:37:18;;;;;;;4.22;1.63;;;10.00;99.90;;;;;;4976932;28;20030;-71
2022/09/23 00:39:45;;;;;;;1.65;1.50;;;10.10;99.90;;;;;;4994919;28;20037;-71
2022/09/23 00:42:17;;;;;;;4.55;2.03;;;10.00;99.90;;;;;;4993447;28;20474;-71
2022/09/23 00:44:45;;;;;;;3.03;1.98;;;10.00;99.90;;;;;;4994944;28;20033;-71
2022/09/23 00:47:28;;;;;;;12.80;2.25;;;10.00;99.90;;;;;;4994893;28;20360;-70
2022/09/23 00:50:09;;;;;;;1.90;1.70;;;10.00;99.90;;;;;;4994627;28;20034;-70
2022/09/23 00:52:36;;;;;;;3.15;1.83;;;10.00;99.90;;;;;;4994529;28;20038;-69
2022/09/23 00:55:07;;;;;;;2.08;1.50;;;10.00;99.90;;;;;;4994762;28;20042;-69
2022/09/23 00:57:35;;;;;;;4.68;1.63;;;9.90;99.90;;;;;;4976927;28;20478;-72
2022/09/23 01:00:03;;;;;;;1.77;1.50;;;10.00;99.90;;;;;;4994654;28;20336;-70
2022/09/23 01:02:30;;;;;;;4.05;2.10;;;9.90;99.90;;;;;;4993784;28;20077;-70
2022/09/23 01:04:56;;;;;;;2.28;1.60;;;9.90;99.90;;;;;;4994225;28;20022;-71
2022/09/23 01:07:22;;;;;;;2.85;2.08;;;9.90;99.90;;;;;;4994099;28;20026;-70
2022/09/23 01:09:49;;;;;;;1.95;1.65;;;9.80;99.90;;;;;;4994273;28;20030;-70
2022/09/23 01:12:23;;;;;;;2.13;1.52;;;9.80;99.90;;;;;;4994125;28;20037;-70
2022/09/23 01:15:07;;;;;;;2.80;1.48;;;9.80;99.90;;;;;;4982908;28;20038;-70
2022/09/23 01:17:33;;;;;;;3.85;1.73;;;9.80;99.90;;;;;;4974280;28;20102;-70
2022/09/23 01:20:07;;;;;;;3.10;1.80;;;9.70;99.90;;;;;;4977060;28;20460;-70
2022/09/23 01:22:52;;;;;;;3.88;1.70;;;9.70;99.90;;;;;;4974619;28;20027;-70
2022/09/23 01:25:30;;;;;;;3.00;1.70;;;9.70;99.90;;;;;;4974729;28;20474;-72
2022/09/23 01:28:11;;;;;;;4.50;1.52;;;9.70;99.90;;;;;;4974943;28;20026;-69
2022/09/23 01:30:36;;;;;;;1.87;1.30;;;9.60;99.90;;;;;;4974365;28;20117;-70
2022/09/23 01:33:32;;;;;;;1.73;1.45;;;9.60;99.90;;;;;;4974295;28;20303;-70
2022/09/23 01:36:23;;;;;;;1.85;1.60;;;9.50;99.90;;;;;;4974734;28;20023;-70
2022/09/23 01:39:13;;;;;;;3.60;1.50;;;9.50;99.90;;;;;;4974176;28;20428;-70
2022/09/23 01:42:22;;;;;;;3.10;1.52;;;9.50;99.90;;;;;;4974285;28;20050;-71
2022/09/23 01:44:58;;;;;;;1.67;1.27;;;9.50;99.90;;;;;;4895854;29;20104;-71
2022/09/23 01:47:33;;;;;;;4.40;1.60;;;9.40;99.90;;;;;;4962833;28;20054;-70
2022/09/23 01:53:27;;;;;;;5.80;1.52;;;9.40;99.90;;;;;;4973886;28;20093;-70
2022/09/23 01:55:59;;;;;;;3.40;1.80;;;9.40;99.90;;;;;;4974154;28;20031;-70
2022/09/23 01:58:27;;;;;;;;;;;9.40;99.90;;;;;;4974315;28;20110;-70
2022/09/23 02:01:02;;;;;;;1.52;1.42;;;9.30;99.90;;;;;;4974325;28;19961;-69
2022/09/23 02:03:32;;;;;;;2.90;1.92;;;9.30;99.90;;;;;;4973883;28;20104;-70
2022/09/23 02:06:12;;;;;;;1.80;1.45;;;9.30;99.90;;;;;;4974780;28;20019;-70
2022/09/23 02:09:02;;;;;;;1.65;1.30;;;9.30;99.90;;;;;;4973881;28;20038;-70
2022/09/23 02:11:34;;;;;;;2.55;1.58;;;9.30;99.90;;;;;;4973076;28;20395;-70
2022/09/23 02:14:35;;;;;;;6.63;1.58;;;9.30;99.90;;;;;;4974125;28;20030;-70
2022/09/23 02:17:09;;;;;;;1.57;1.30;;;9.30;99.90;;;;;;4973832;28;20027;-70
2022/09/23 02:19:50;;;;;;;2.30;1.65;;;9.40;99.90;;;;;;4973391;28;20092;-70
2022/09/23 02:22:27;;;;;;;1.42;1.20;;;9.30;99.90;;;;;;4974033;28;20031;-70
2022/09/23 02:24:55;;;;;;;2.38;1.67;;;9.40;99.90;;;;;;4973800;28;20034;-70
2022/09/23 02:27:50;;;;;;;2.28;1.40;;;9.40;99.90;;;;;;4973883;28;20026;-70
2022/09/23 02:30:25;;;;;;;1.92;1.45;;;9.30;99.90;;;;;;4974045;28;20135;-71
2022/09/23 02:32:53;;;;;;;1.80;1.35;;;9.30;99.90;;;;;;4973996;28;20031;-70
2022/09/23 02:35:39;;;;;;;2.83;1.58;;;9.40;99.90;;;;;;4973882;28;20035;-70
2022/09/23 02:38:32;;;;;;;1.48;1.38;;;9.30;99.90;;;;;;4973904;28;20039;-70
2022/09/23 02:41:20;;;;;;;2.00;1.30;;;9.30;99.90;;;;;;4973839;28;20031;-70
2022/09/23 02:44:13;;;;;;;2.15;1.50;;;9.30;99.90;;;;;;4970595;28;20562;-70
2022/09/23 02:46:42;;;;;;;1.30;1.17;;;9.30;99.90;;;;;;4975452;28;20379;-71
2022/09/23 02:49:16;;;;;;;1.45;1.25;;;9.30;99.90;;;;;;4993141;28;20065;-70
2022/09/23 02:51:42;;;;;;;3.05;1.75;;;9.40;99.90;;;;;;4992829;28;20022;-70
2022/09/23 02:54:13;;;;;;;2.28;1.60;;;9.30;99.90;;;;;;4993147;28;20038;-70
2022/09/23 02:56:40;;;;;;;1.55;1.45;;;9.30;99.90;;;;;;4992874;28;20030;-70
2022/09/23 02:59:07;;;;;;;3.83;1.63;;;9.30;99.90;;;;;;4993110;28;20041;-69
2022/09/23 03:01:37;;;;;;;1.77;1.40;;;9.30;99.90;;;;;;4992666;28;20081;-71
2022/09/23 03:04:20;;;;;;;3.10;1.70;;;9.30;99.90;;;;;;4993001;28;20030;-70
2022/09/23 03:07:07;;;;;;;2.30;1.52;;;9.30;99.90;;;;;;4994932;28;20054;-70
2022/09/23 03:09:35;;;;;;;2.78;1.80;;;9.20;99.90;;;;;;4996321;28;20023;-71
2022/09/23 03:12:14;;;;;;;2.80;1.90;;;9.20;99.90;;;;;;4996802;28;20030;-70
2022/09/23 03:14:55;;;;;;;3.67;1.70;;;9.20;99.90;;;;;;4996466;28;20026;-70
2022/09/23 03:17:59;;;;;;;5.03;1.40;;;9.20;99.90;;;;;;4996193;28;20018;-70
2022/09/23 03:20:36;;;;;;;4.70;1.40;;;9.20;99.90;;;;;;4994816;28;20093;-70
2022/09/23 03:23:06;;;;;;;2.15;1.67;;;9.20;99.90;;;;;;4976990;28;20472;-70
2022/09/23 03:25:37;;;;;;;7.67;1.73;;;9.10;99.90;;;;;;4959322;28;20081;-70
2022/09/23 03:28:06;;;;;;;4.47;1.90;;;9.10;99.90;;;;;;4976992;28;20031;-69
2022/09/23 03:30:34;;;;;;;1.75;1.45;;;9.00;99.90;;;;;;4976402;28;20283;-70
2022/09/23 03:33:03;;;;;;;4.32;1.88;;;9.00;99.90;;;;;;4976971;28;20027;-70
2022/09/23 03:35:32;;;;;;;1.88;1.42;;;9.00;99.90;;;;;;4976511;28;20067;-74
2022/09/23 03:38:11;;;;;;;2.53;1.40;;;9.00;99.90;;;;;;4976838;28;20030;-70
2022/09/23 03:40:42;;;;;;;1.92;1.52;;;9.00;99.90;;;;;;4976519;28;20041;-70
2022/09/23 03:43:08;;;;;;;;;;;9.00;99.90;;;;;;4976954;28;20046;-71
2022/09/23 03:45:35;;;;;;;2.03;1.50;;;9.00;99.90;;;;;;4976590;28;20351;-71
2022/09/23 03:48:01;;;;;;;1.85;1.60;;;9.00;99.90;;;;;;4976825;28;20030;-71
2022/09/23 03:50:26;;;;;;;1.52;1.42;;;9.00;99.90;;;;;;4976574;28;20034;-71
2022/09/23 03:52:52;;;;;;;2.30;1.80;;;9.00;99.90;;;;;;4958778;28;20452;-70
2022/09/23 03:55:20;;;;;;;1.98;1.38;;;8.90;99.90;;;;;;4976446;28;20026;-70
2022/09/23 03:57:45;;;;;;;3.35;1.52;;;8.90;99.90;;;;;;4976023;28;20054;-70
2022/09/23 04:00:13;;;;;;;2.55;1.73;;;8.90;99.90;;;;;;4976369;28;20069;-70
2022/09/23 04:02:39;;;;;;;2.17;1.70;;;8.90;99.90;;;;;;4975973;28;20109;-71
2022/09/23 04:05:06;;;;;;;2.80;1.75;;;8.90;99.90;;;;;;4976086;28;20035;-70
2022/09/23 04:07:32;;;;;;;2.65;1.52;;;8.90;99.90;;;;;;4975861;28;20027;-72
2022/09/23 04:09:57;;;;;;;1.75;1.63;;;8.90;99.90;;;;;;4959191;28;20126;-71
2022/09/23 04:12:23;;;;;;;2.20;1.60;;;8.80;99.90;;;;;;4976152;28;20364;-70
2022/09/23 04:14:49;;;;;;;3.20;1.55;;;8.90;99.90;;;;;;4976045;28;20542;-70
2022/09/23 04:17:15;;;;;;;2.75;1.88;;;8.80;99.90;;;;;;4976095;28;20034;-70
2022/09/23 04:19:41;;;;;;;2.58;1.80;;;8.80;99.90;;;;;;4975315;28;20106;-70
2022/09/23 04:22:08;;;;;;;2.45;1.73;;;8.80;99.90;;;;;;4976035;28;20018;-70
2022/09/23 04:24:34;;;;;;;4.25;1.70;;;8.80;99.90;;;;;;4975258;28;20062;-71
2022/09/23 04:26:59;;;;;;;3.15;2.10;;;8.70;99.90;;;;;;4975866;28;20058;-70
2022/09/23 04:29:25;;;;;;;3.95;2.13;;;8.70;99.90;;;;;;4975819;28;20431;-70
2022/09/23 04:31:52;;;;;;;3.33;2.10;;;8.70;99.90;;;;;;4975310;28;20149;-70
2022/09/23 04:34:18;;;;;;;4.53;1.90;;;8.60;99.90;;;;;;4975900;28;20364;-70
2022/09/23 04:36:45;;;;;;;3.15;1.80;;;8.60;99.90;;;;;;4975352;28;20166;-70
2022/09/23 04:39:12;;;;;;;4.38;1.92;;;8.60;99.90;;;;;;4958371;28;20031;-69
2022/09/23 04:41:38;;;;;;;2.60;1.88;;;8.50;99.90;;;;;;4974976;28;20034;-69
2022/09/23 04:44:04;;;;;;;3.90;2.08;;;8.50;99.90;;;;;;4973589;28;20102;-71
2022/09/23 04:46:30;;;;;;;4.32;1.80;;;8.50;99.90;;;;;;4958369;28;20042;-71
2022/09/23 04:48:56;;;;;;;3.58;1.88;;;8.50;99.90;;;;;;4975005;28;20396;-70
2022/09/23 04:51:24;;;;;;;5.28;2.17;;;8.50;99.90;;;;;;4975202;28;20030;-70
2022/09/23 04:53:51;;;;;;;2.45;2.17;;;8.50;99.90;;;;;;4974863;28;20038;-70
2022/09/23 04:56:28;;;;;;;3.85;2.20;;;8.50;99.90;;;;;;4975062;28;20031;-71
2022/09/23 04:58:57;;;;;;;5.03;2.15;;;8.50;99.90;;;;;;4974373;28;20109;-70
2022/09/23 05:01:27;;;;;;;5.13;2.95;;;8.50;99.90;;;;;;4974966;28;20031;-70
2022/09/23 05:03:56;;;;;;;5.03;2.70;;;8.50;99.90;;;;;;4974800;28;20428;-70
2022/09/23 05:06:23;;;;;;;3.25;2.25;;;8.60;99.90;;;;;;4974342;28;20035;-70
2022/09/23 05:08:54;;;;;;;3.55;2.70;;;8.50;99.90;;;;;;4974422;28;20027;-70
2022/09/23 05:11:20;;;;;;;;;;;8.60;99.90;;;;;;4957217;28;20491;-70
2022/09/23 05:13:47;;;;;;;3.50;2.42;;;8.60;99.90;;;;;;4973360;28;19914;-71
2022/09/23 05:16:13;;;;;;;6.68;2.47;;;8.60;99.90;;;;;;4971593;28;20026;-71
2022/09/23 05:18:42;;;;;;;4.28;2.83;;;8.60;99.90;;;;;;4974450;28;20479;-71
2022/09/23 05:21:13;;;;;;;7.78;2.70;;;8.60;99.90;;;;;;4974261;28;20030;-71
2022/09/23 05:23:40;;;;;;;5.18;3.50;;;8.60;99.90;;;;;;4974366;28;20067;-71
2022/09/23 05:26:09;;;;;;;3.70;2.60;;;8.60;99.90;;;;;;4974570;28;20035;-71
2022/09/23 05:28:36;;;;;;;10.75;3.42;;;8.60;99.90;;;;;;4973645;28;20443;-70
2022/09/23 05:31:15;;;;;;;7.95;3.10;;;8.70;99.90;;;;;;4956840;28;20034;-70
2022/09/23 05:33:44;;;;;;;6.13;2.60;;;8.70;99.90;;;;;;4974028;28;20050;-70
2022/09/23 05:36:11;;;;;;;4.90;2.97;;;8.70;99.90;;;;;;4974356;28;20038;-72
2022/09/23 05:38:37;;;;;;;5.70;2.90;;;8.70;99.90;;;;;;4974196;28;20033;-71
2022/09/23 05:41:05;;;;;;;3.72;2.72;;;8.80;99.90;;;;;;4974252;28;20117;-71
2022/09/23 05:43:32;;;;;;;8.40;3.00;;;8.80;99.90;;;;;;4973902;28;20105;-71
2022/09/23 05:46:05;;;;;;;4.68;2.85;;;8.90;99.90;;;;;;4973895;28;20039;-70
2022/09/23 05:48:32;;;;;;;8.10;2.95;;;8.90;99.90;;;;;;4974289;28;20027;-70
2022/09/23 05:50:58;;;;;;;5.53;2.95;;;8.90;99.90;;;;;;4973550;28;20383;-71
2022/09/23 05:53:25;;;;;;;6.35;3.13;;;8.90;99.90;;;;;;4973905;28;20449;-71
2022/09/23 05:55:53;;;;;;;7.70;3.08;;;9.00;99.90;;;;;;4974526;28;20416;-71
2022/09/23 05:58:19;;;;;;;12.35;3.38;;;9.00;99.90;;;;;;4956960;28;20098;-70
2022/09/23 06:00:44;;;;;;;4.70;3.17;;;9.00;99.90;;;;;;4973569;28;20072;-71
2022/09/23 06:03:12;;;;;;;6.78;3.45;;;9.10;99.90;;;;;;4974116;28;20027;-71
2022/09/23 06:05:38;;;;;;;6.93;3.17;;;9.10;99.90;;;;;;4974013;28;20429;-70
2022/09/23 06:08:05;;;;;;;4.28;2.65;;;9.10;99.90;;;;;;4973587;28;20027;-70
2022/09/23 06:10:34;;;;;;;6.93;2.92;;;9.20;99.90;;;;;;4973968;28;20069;-71
2022/09/23 06:13:00;;;;;;;5.13;2.95;;;9.20;99.90;;;;;;4973607;28;20831;-70
2022/09/23 06:15:26;;;;;;;5.00;3.30;;;9.20;99.90;;;;;;4956526;28;20119;-70
2022/09/23 06:17:51;;;;;;;8.75;3.67;;;9.30;99.90;;;;;;4973309;28;20039;-71
2022/09/23 06:20:17;;;;;;;4.13;2.80;;;9.30;99.90;;;;;;4974129;28;20031;-70
2022/09/23 06:22:42;;;;;;;5.80;3.08;;;9.30;99.90;;;;;;4973519;28;20038;-71
2022/09/23 06:25:08;;;;;;;4.90;2.78;;;9.40;99.90;;;;;;4973798;28;20055;-70
2022/09/23 06:27:34;;;;;;;7.43;3.60;;;9.40;99.90;;;;;;4973819;28;20027;-70
2022/09/23 06:29:59;;;;;;;6.32;3.50;;;9.50;99.90;;;;;;4955808;28;20381;-71
2022/09/23 06:32:25;;;;;;;8.63;4.18;;;9.60;99.90;;;;;;4973092;28;20042;-70
2022/09/23 06:34:51;;;;;;;7.03;3.88;;;9.60;99.90;;;;;;4973664;28;20399;-70
2022/09/23 06:37:16;;;;;;;5.15;3.65;;;9.70;99.90;;;;;;4973418;28;20031;-70
2022/09/23 06:39:42;;;;;;;8.07;3.47;;;9.80;99.90;;;;;;4973559;28;20037;-76
2022/09/23 06:42:08;;;;;;;10.90;3.97;;;9.80;99.90;;;;;;4978641;28;20089;-70
2022/09/23 06:44:33;;;;;;;4.53;2.92;;;9.80;99.90;;;;;;4996635;28;20034;-71
2022/09/23 06:46:59;;;;;;;11.73;3.92;;;9.90;99.90;;;;;;4996607;28;20035;-71
2022/09/23 06:49:25;;;;;;;8.07;3.20;;;10.00;99.90;;;;;;4996688;28;20034;-69
2022/09/23 06:51:51;;;;;;;6.35;3.30;;;10.10;99.90;;;;;;4996276;28;20395;-70
2022/09/23 06:54:16;;;;;;;5.60;3.53;;;10.10;99.90;;;;;;4996788;28;20022;-70
2022/09/23 06:56:46;;;;;;;5.03;3.50;;;10.20;99.90;;;;;;4997071;28;20030;-70
2022/09/23 06:59:15;;;;;;;5.43;3.63;;;10.30;99.90;;;;;;4996897;28;20077;-70
2022/09/23 07:01:41;;;;;;;8.55;3.45;;;10.40;99.90;;;;;;4996668;28;20497;-70
2022/09/23 07:04:09;;;;;;;14.93;3.65;;;10.50;99.90;;;;;;4995863;28;20420;-70
2022/09/23 07:06:36;;;;;;;7.38;3.38;;;10.80;99.90;;;;;;4996434;28;20080;-71
2022/09/23 07:09:02;;;;;;;5.82;3.17;;;11.10;99.90;;;;;;4996053;28;20069;-71
2022/09/23 07:11:28;;;;;;;6.07;3.92;;;11.40;99.90;;;;;;4996241;28;20552;-70
2022/09/23 07:13:53;;;;;;;11.48;3.50;;;11.80;99.90;;;;;;4995799;28;20034;-71
2022/09/23 07:16:20;;;;;;;4.40;3.10;;;12.20;99.90;;;;;;4995744;28;20539;-71
2022/09/23 07:18:46;;;;;;;5.00;2.85;;;12.60;98.80;;;;;;4990534;28;20399;-79
2022/09/23 07:21:16;;;;;;;3.75;3.03;;;13.00;96.80;;;;;;4996424;28;20463;-70
2022/09/23 07:23:44;;;;;;;4.60;2.72;;;13.60;95.70;;;;;;4996424;28;20031;-70
2022/09/23 07:26:11;;;;;;;4.90;2.40;;;14.10;93.80;;;;;;4995734;28;20033;-70
2022/09/23 07:28:37;;;;;;;8.10;2.78;;;14.60;91.60;;;;;;4996399;28;20026;-71
2022/09/23 07:31:06;;;;;;;4.03;2.17;;;15.50;87.70;;;;;;4995726;28;20092;-71
2022/09/23 07:33:33;;;;;;;4.00;2.40;;;16.60;83.60;;;;;;4996076;28;20034;-70
2022/09/23 07:36:07;;;;;;;3.17;2.10;;;17.90;77.10;;;;;;4995471;28;20027;-71
2022/09/23 07:38:33;;;;;;;3.88;2.40;;;19.20;68.20;;;;;;4996032;28;20046;-70
2022/09/23 07:41:04;;;;;;;5.40;2.60;;;20.40;64.20;;;;;;4995788;28;20038;-71
2022/09/23 07:43:33;;;;;;;3.72;2.50;;;21.30;58.50;;;;;;4995914;28;20062;-71
2022/09/23 07:46:01;;;;;;;2.83;2.28;;;22.00;55.80;;;;;;4995119;28;20085;-72
2022/09/23 07:48:28;;;;;;;2.70;2.40;;;22.60;54.00;;;;;;4995858;28;20034;-70
2022/09/23 07:50:54;;;;;;;3.50;2.20;;;22.90;51.90;;;;;;4989282;28;20474;-71
2022/09/23 07:53:20;;;;;;;3.05;2.47;;;23.00;50.60;;;;;;4975554;28;20039;-71
2022/09/23 07:55:56;;;;;;;6.57;2.65;;;22.70;50.00;;;;;;4976174;28;20045;-71
2022/09/23 07:58:22;;;;;;;2.80;2.20;;;22.30;49.70;;;;;;4976138;28;20037;-71
2022/09/23 08:00:50;;;;;;;4.28;2.65;;;22.50;49.90;;;;;;4976096;28;20137;-78
2022/09/23 08:03:16;;;;;;;4.35;2.25;;;23.20;50.00;;;;;;4975967;28;20037;-71
2022/09/23 08:05:41;;;;;;;5.15;2.70;;;23.80;48.30;;;;;;4976035;28;20027;-70
2022/09/23 08:08:08;;;;;;;4.45;2.78;;;24.20;45.80;;;;;;4975354;28;20038;-71
2022/09/23 08:10:34;;;;;;;3.30;2.53;;;24.00;45.90;;;;;;4976181;28;20030;-71
2022/09/23 08:13:02;;;;;;;4.40;2.42;;;24.00;45.80;;;;;;4975465;28;20041;-71
2022/09/23 08:15:28;;;;;;;3.47;2.25;;;24.10;44.60;;;;;;4975908;28;20035;-71
2022/09/23 08:17:56;;;;;;;3.80;2.33;;;23.70;44.20;;;;;;4975259;28;20480;-71
2022/09/23 08:23:06;;;;;;;2.95;2.35;;;24.20;44.50;;;;;;4975222;28;20106;-71
2022/09/23 08:25:32;;;;;;;2.80;2.15;;;23.40;43.40;;;;;;4975754;28;20057;-71
2022/09/23 08:27:58;;;;;;;3.95;2.00;;;22.90;44.90;;;;;;4975011;28;20051;-70
2022/09/23 08:30:24;;;;;;;3.63;2.10;;;22.60;46.30;;;;;;4975552;28;20066;-71
2022/09/23 08:32:50;;;;;;;3.65;2.33;;;21.80;46.30;;;;;;4957856;28;20483;-73
2022/09/23 08:35:16;;;;;;;3.08;2.55;;;21.40;47.40;;;;;;4975431;28;20447;-70
2022/09/23 08:37:42;;;;;;;4.88;2.60;;;20.90;49.20;;;;;;4975611;28;20097;-70
2022/09/23 08:40:08;;;;;;;4.35;2.88;;;20.50;50.60;;;;;;4975036;28;20038;-72
2022/09/23 08:42:38;;;;;;;5.15;2.80;;;20.40;51.10;;;;;;4975332;28;20047;-72
2022/09/23 08:45:09;;;;;;;5.25;2.65;;;20.40;52.40;;;;;;4974917;28;20034;-72
2022/09/23 08:47:46;;;;;;;4.20;2.53;;;20.50;52.40;;;;;;4975340;28;20035;-70
2022/09/23 08:50:25;;;;;;;6.10;3.80;;;20.40;51.60;;;;;;4974630;28;20522;-71
2022/09/23 08:52:58;;;;;;;7.55;2.85;;;20.30;52.10;;;;;;4957992;28;20447;-71
2022/09/23 08:55:50;;;;;;;6.25;2.83;;;20.30;53.50;;;;;;4975037;28;20131;-71
2022/09/23 08:58:34;;;;;;;3.95;2.92;;;20.30;53.50;;;;;;4974661;28;20031;-71
2022/09/23 09:01:06;;;;;;;5.68;2.92;;;20.20;52.50;;;;;;4974718;28;20030;-71
2022/09/23 09:03:56;;;;;;;3.60;2.85;;;20.20;52.90;;;;;;4974245;28;20030;-71
2022/09/23 09:06:29;;;;;;;3.83;2.00;;;19.80;52.20;;;;;;4975121;28;20470;-70
2022/09/23 09:09:03;;;;;;;4.10;2.70;;;19.80;53.00;;;;;;4974537;28;20117;-71
2022/09/23 09:11:39;;;;;;;6.05;2.60;;;19.90;53.30;;;;;;4974380;28;20031;-71
2022/09/23 09:14:21;;;;;;;6.60;3.10;;;20.00;53.60;;;;;;4956670;28;20039;-70
2022/09/23 09:17:20;;;;;;;6.72;3.30;;;20.10;53.80;;;;;;4973926;28;20027;-70
2022/09/23 09:19:54;;;;;;;6.45;3.15;;;20.30;53.40;;;;;;4971443;28;20110;-71
2022/09/23 09:22:33;;;;;;;4.85;2.75;;;20.30;52.80;;;;;;4974374;28;20106;-71
2022/09/23 09:25:33;;;;;;;3.95;2.70;;;20.00;51.30;;;;;;4974413;28;20027;-70
2022/09/23 09:27:59;;;;;;;3.70;2.60;;;19.90;52.30;;;;;;4964904;28;20039;-71
2022/09/23 09:30:27;;;;;;;4.18;2.63;;;20.10;53.20;;;;;;4957275;28;20039;-70
2022/09/23 09:33:05;;;;;;;3.40;2.20;;;20.10;51.50;;;;;;4957316;28;20372;-70
2022/09/23 09:35:37;;;;;;;3.85;2.22;;;20.20;52.70;;;;;;4974477;28;20034;-70
2022/09/23 09:38:04;;;;;;;6.20;2.42;;;20.20;52.20;;;;;;4974134;28;20050;-70
2022/09/23 09:40:30;;;;;;;2.38;1.50;;;20.20;50.90;;;;;;4974589;28;20040;-70
2022/09/23 09:42:56;;;;;;;2.05;1.55;;;20.00;49.20;;;;;;4973510;28;20150;-70
2022/09/23 09:45:23;;;;;;;3.25;1.88;;;20.00;49.80;;;;;;4974225;28;20547;-71
2022/09/23 09:48:16;;;;;;;5.32;2.30;;;19.90;50.10;;;;;;4974348;28;20027;-71
2022/09/23 09:50:52;;;;;;;2.97;2.10;;;20.00;50.20;;;;;;4974221;28;20027;-71
2022/09/23 09:53:25;;;;;;;3.42;1.88;;;20.10;50.70;;;;;;4973891;28;20498;-70
2022/09/23 09:56:06;;;;;;;1.40;1.30;;;20.10;50.50;;;;;;4974053;28;20026;-71
2022/09/23 09:58:57;;;;;;;6.47;1.75;;;20.30;51.00;;;;;;4973917;28;20386;-70
2022/09/23 10:01:33;;;;;;;3.08;1.90;;;20.40;49.50;;;;;;4974528;28;20085;-70
2022/09/23 10:04:33;;;;;;;4.75;1.98;;;20.50;50.10;;;;;;4973718;28;20023;-71
2022/09/23 10:07:08;;;;;;;3.93;2.17;;;20.70;50.60;;;;;;4973868;28;20019;-71
2022/09/23 10:09:35;;;;;;;3.05;1.83;;;20.60;49.20;;;;;;4973846;28;20249;-70
2022/09/23 10:12:09;;;;;;;3.10;1.60;;;20.60;49.50;;;;;;4973396;28;20049;-72
2022/09/23 10:14:35;;;;;;;4.25;1.83;;;20.70;49.50;;;;;;4973865;28;20034;-71
2022/09/23 10:17:05;;;;;;;5.07;1.90;;;20.80;49.50;;;;;;4973515;28;20534;-71
2022/09/23 10:19:33;;;;;;;2.22;1.90;;;20.90;49.80;;;;;;4974148;28;20031;-70
2022/09/23 10:22:08;;;;;;;2.40;1.73;;;21.00;48.90;;;;;;4973562;28;20046;-72
2022/09/23 10:24:37;;;;;;;3.75;1.73;;;21.10;48.90;;;;;;4973860;28;20019;-70
2022/09/23 10:27:10;;;;;;;1.90;1.67;;;21.10;48.20;;;;;;4955834;28;20066;-69
2022/09/23 10:29:45;;;;;;;3.38;1.85;;;21.10;48.10;;;;;;4973864;28;20073;-70
2022/09/23 10:32:22;;;;;;;1.50;1.30;;;21.10;47.90;;;;;;4973025;28;20069;-70
2022/09/23 10:34:53;;;;;;;2.22;1.50;;;21.10;47.60;;;;;;4956133;28;20041;-70
2022/09/23 10:37:41;;;;;;;2.75;1.55;;;21.10;46.30;;;;;;4972954;28;20498;-69
2022/09/23 10:46:37;;;;;;;2.33;1.60;;;21.00;47.60;;;;;;4972908;28;20041;-70
2022/09/23 10:49:11;;;;;;;2.08;1.25;;;21.00;46.80;;;;;;4972930;28;20424;-70
2022/09/23 10:51:48;;;;;;;3.70;1.67;;;20.70;47.90;;;;;;4973432;28;20031;-70
2022/09/23 10:54:32;;;;;;;3.33;1.63;;;20.90;48.70;;;;;;4973154;28;20039;-71
2022/09/23 10:57:36;;;;;;;3.72;1.67;;;21.00;48.00;;;;;;4973729;28;20082;-70
2022/09/23 11:00:21;;;;;;;2.05;1.55;;;21.00;47.60;;;;;;4973445;28;20424;-70
2022/09/23 11:03:13;;;;;;;1.80;1.13;;;21.10;48.00;;;;;;4971083;28;20079;-70
2022/09/23 11:06:06;;;;;;;2.55;1.58;;;21.10;48.10;;;;;;4973605;28;20037;-70
2022/09/23 11:09:17;;;;;;;2.33;1.75;;;21.20;47.80;;;;;;4973175;28;20030;-70
2022/09/23 11:12:07;;;;;;;2.50;1.65;;;21.10;47.90;;;;;;4972686;28;20034;-70
2022/09/23 11:15:05;;;;;;;1.30;1.15;;;21.20;47.70;;;;;;4973391;28;20051;-70
2022/09/23 11:17:58;;;;;;;1.55;1.10;;;21.10;46.10;;;;;;4973592;28;20023;-70
2022/09/23 11:20:33;;;;;;;2.10;1.20;;;21.10;46.50;;;;;;4955744;28;20107;-70
2022/09/23 11:23:27;;;;;;;1.70;1.40;;;21.10;46.30;;;;;;4973167;28;20075;-70
2022/09/23 11:26:06;;;;;;;1.92;1.17;;;21.10;45.90;;;;;;4973494;28;20038;-70
2022/09/23 11:28:52;;;;;;;2.40;1.27;;;21.10;46.70;;;;;;4978370;28;20472;-70
2022/09/23 11:31:39;;;;;;;1.30;1.00;;;21.10;46.50;;;;;;4957058;29;20031;-70
2022/09/23 11:34:46;;;;;;;2.90;1.10;;;21.20;47.50;;;;;;4957272;29;20035;-70
2022/09/23 11:37:20;;;;;;;1.35;1.20;;;21.30;47.30;;;;;;4920623;29;20035;-70
2022/09/23 11:40:06;;;;;;;1.60;1.48;;;21.40;47.00;;;;;;4957533;29;20039;-70
2022/09/23 11:42:43;;;;;;;1.80;1.10;;;21.40;45.70;;;;;;4962551;28;20376;-70
2022/09/23 11:45:18;;;;;;;2.67;1.30;;;21.40;45.20;;;;;;4976039;28;20019;-70
2022/09/23 11:48:09;;;;;;;2.08;1.15;;;21.10;45.60;;;;;;4976292;28;20054;-70
2022/09/23 11:51:08;;;;;;;3.30;1.45;;;21.20;46.80;;;;;;4976374;28;20066;-69
2022/09/23 11:53:42;;;;;;;2.88;1.20;;;21.30;45.20;;;;;;4976506;28;20039;-71
2022/09/23 11:56:22;;;;;;;1.98;0.98;;;21.20;44.80;;;;;;4976118;28;20018;-72
2022/09/23 11:59:05;;;;;;;4.65;1.10;;;21.20;44.20;;;;;;4976517;28;20471;-70
2022/09/23 12:01:45;;;;;;;1.77;1.20;;;21.20;43.90;;;;;;4976380;28;20061;-69
2022/09/23 12:04:17;;;;;;;1.65;1.20;;;21.00;43.50;;;;;;4975904;28;20031;-69
2022/09/23 12:06:53;;;;;;;1.25;1.08;;;21.10;44.80;;;;;;4975965;28;20027;-69
2022/09/23 12:09:30;;;;;;;1.00;0.90;;;21.10;43.90;;;;;;4975543;28;20023;-69
2022/09/23 12:12:24;;;;;;;0.90;0.82;;;21.00;44.60;;;;;;4975909;28;20059;-70
2022/09/23 12:14:52;;;;;;;2.75;1.20;;;20.90;43.50;;;;;;4926892;28;20047;-70
2022/09/23 12:17:35;;;;;;;2.17;1.13;;;20.80;42.90;;;;;;4975553;28;20431;-70
2022/09/23 12:20:30;;;;;;;2.78;1.20;;;20.80;44.50;;;;;;4976252;28;20081;-71
2022/09/23 12:23:12;;;;;;;2.03;1.00;;;20.60;43.70;;;;;;4975996;28;20034;-69
2022/09/23 12:25:53;;;;;;;1.65;1.13;;;20.50;44.40;;;;;;4942419;28;20122;-70
2022/09/23 12:28:21;;;;;;;1.70;1.23;;;20.30;44.30;;;;;;4958046;28;20419;-70
2022/09/23 12:30:49;;;;;;;1.85;1.05;;;20.30;44.90;;;;;;4975672;28;20042;-70
2022/09/23 12:33:26;;;;;;;1.42;0.95;;;20.20;44.70;;;;;;4974969;28;20062;-70
2022/09/23 12:35:54;;;;;;;1.02;0.93;;;20.10;45.20;;;;;;4975624;28;20106;-69
2022/09/23 12:38:45;;;;;;;1.88;1.20;;;20.00;44.90;;;;;;4973924;28;20147;-70
2022/09/23 12:41:18;;;;;;;1.65;1.10;;;20.00;45.00;;;;;;4974776;28;20476;-70
2022/09/23 12:44:12;;;;;;;1.17;1.00;;;19.80;45.50;;;;;;4975689;28;20050;-70
2022/09/23 12:46:39;;;;;;;2.00;1.02;;;19.70;45.30;;;;;;4975618;28;20113;-69
2022/09/23 12:49:26;;;;;;;1.80;1.13;;;19.70;45.80;;;;;;4975737;28;20026;-71
2022/09/23 12:52:09;;;;;;;0.88;0.88;;;19.50;45.10;;;;;;4975471;28;20551;-69
2022/09/23 12:54:37;;;;;;;1.10;0.90;;;19.40;46.00;;;;;;4975341;28;20027;-70
2022/09/23 12:57:12;;;;;;;2.08;1.00;;;19.40;45.60;;;;;;4975141;28;20027;-69
2022/09/23 12:59:51;;;;;;;1.70;1.10;;;19.20;44.80;;;;;;4975255;28;20027;-70
2022/09/23 13:02:32;;;;;;;1.23;1.10;;;19.10;45.20;;;;;;4974836;28;20026;-70
2022/09/23 13:08:07;;;;;;;2.83;1.10;;;19.00;46.50;;;;;;4994496;28;20045;-70
2022/09/23 13:10:48;;;;;;;1.95;1.10;;;19.00;47.60;;;;;;4993839;28;20118;-70
2022/09/23 13:13:37;;;;;;;1.80;1.13;;;18.90;46.60;;;;;;4976375;28;20037;-71
2022/09/23 13:16:20;;;;;;;1.63;1.02;;;18.80;46.90;;;;;;4994360;28;20165;-69
2022/09/23 13:18:49;;;;;;;2.05;1.13;;;18.80;47.70;;;;;;4994579;28;20117;-70
2022/09/23 13:21:17;;;;;;;1.40;1.17;;;18.70;46.70;;;;;;4993831;28;20030;-70
2022/09/23 13:24:12;;;;;;;2.25;1.17;;;18.60;47.20;;;;;;4994105;28;20089;-70
2022/09/23 13:26:42;;;;;;;1.85;1.15;;;18.60;46.90;;;;;;4992984;28;20030;-70
2022/09/23 13:29:22;;;;;;;1.52;1.20;;;18.50;47.30;;;;;;4992138;28;20026;-69
2022/09/23 13:31:48;;;;;;;1.70;1.33;;;18.50;47.10;;;;;;4993800;28;20486;-70
2022/09/23 13:34:19;;;;;;;2.10;1.27;;;18.40;47.00;;;;;;4993618;28;20034;-70
2022/09/23 13:36:46;;;;;;;1.90;1.23;;;18.30;46.80;;;;;;4993937;28;20482;-70
2022/09/23 13:39:14;;;;;;;1.30;1.20;;;18.30;47.40;;;;;;4993582;28;20022;-73